createdAt,value
2019-05-12T13:33:18.398Z,30.72
2019-05-12T13:35:55.765Z,6.15
2019-05-12T13:41:20.547Z,3.72
2019-05-12T13:43:56.172Z,3.67
2019-05-12T13:46:23.870Z,5.12
2019-05-12T13:48:59.631Z,4.15
2019-05-12T13:51:26.953Z,4.62
2019-05-12T13:53:56.785Z,4.90
2019-05-12T13:56:32.783Z,5.08
2019-05-12T13:58:57.754Z,5.70
2019-05-12T14:01:32.015Z,5.92
2019-05-12T14:03:59.182Z,4.47
2019-05-12T14:06:32.074Z,4.35
2019-05-12T14:09:00.676Z,8.43
2019-05-12T14:11:31.250Z,4.65
2019-05-12T14:14:00.942Z,4.80
2019-05-12T14:16:30.663Z,4.83
2019-05-12T14:19:00.722Z,4.62
2019-05-12T14:21:33.080Z,4.58
2019-05-12T14:24:02.207Z,5.08
2019-05-12T14:26:33.416Z,5.45
2019-05-12T14:29:03.918Z,5.10
2019-05-12T14:31:36.342Z,5.37
2019-05-12T14:34:05.334Z,5.97
2019-05-12T14:36:35.101Z,5.30
2019-05-12T14:39:10.125Z,5.35
2019-05-12T14:41:38.207Z,5.53
2019-05-12T14:44:08.174Z,5.12
2019-05-12T14:46:40.127Z,4.87
2019-05-12T14:49:09.336Z,4.62
2019-05-12T14:51:39.144Z,4.50
2019-05-12T14:54:09.094Z,4.90
2019-05-12T14:56:44.060Z,4.25
2019-05-12T14:59:11.445Z,5.17
2019-05-12T15:01:56.616Z,4.80
2019-05-12T15:04:13.305Z,4.28
2019-05-12T15:06:44.325Z,5.08
2019-05-12T15:09:19.673Z,4.90
2019-05-12T15:11:45.554Z,5.30
2019-05-12T15:14:15.634Z,5.62
2019-05-12T15:16:45.448Z,4.85
2019-05-12T15:19:15.236Z,4.40
2019-05-12T15:21:45.038Z,5.90
2019-05-12T15:24:18.760Z,5.50
2019-05-12T15:26:50.519Z,5.40
2019-05-12T15:29:19.811Z,5.40
2019-05-12T15:31:55.862Z,5.33
2019-05-12T15:34:20.186Z,5.00
2019-05-12T15:36:51.807Z,5.55
2019-05-12T15:39:21.996Z,4.95
2019-05-12T15:41:56.524Z,5.55
2019-05-12T15:44:31.164Z,6.58
2019-05-12T15:46:54.242Z,6.45
2019-05-12T15:49:25.994Z,5.25
2019-05-12T15:51:58.455Z,6.72
2019-05-12T15:54:26.247Z,6.22
2019-05-12T15:56:56.059Z,5.42
2019-05-12T15:59:25.709Z,5.70
2019-05-12T16:02:08.684Z,4.92
2019-05-12T16:04:26.715Z,4.97
2019-05-12T16:06:57.760Z,5.37
2019-05-12T16:09:27.723Z,4.42
2019-05-12T16:11:58.388Z,3.77
2019-05-12T16:14:30.372Z,4.40
2019-05-12T16:16:59.576Z,4.55
2019-05-12T16:19:29.305Z,4.50
2019-05-12T16:21:58.906Z,4.45
2019-05-12T16:24:28.565Z,4.35
2019-05-12T16:26:58.211Z,4.55
2019-05-12T16:29:28.125Z,4.65
2019-05-12T16:31:58.177Z,4.03
2019-05-12T16:34:28.194Z,4.25
2019-05-12T16:36:58.004Z,4.00
2019-05-12T16:39:30.435Z,4.25
2019-05-12T16:42:00.013Z,4.45
2019-05-12T16:44:30.743Z,3.85
2019-05-12T16:47:00.521Z,4.33
2019-05-12T16:49:33.299Z,3.77
2019-05-12T16:52:03.525Z,4.67
2019-05-12T16:54:33.576Z,4.08
2019-05-12T16:57:06.380Z,3.90
2019-05-12T16:59:34.802Z,4.67
2019-05-12T17:02:05.503Z,4.28
2019-05-12T17:04:35.619Z,4.35
2019-05-12T17:07:18.913Z,4.70
2019-05-12T17:09:43.359Z,4.62
2019-05-12T17:12:14.716Z,4.45
2019-05-12T17:14:48.824Z,5.15
2019-05-12T17:17:15.984Z,4.55
2019-05-12T17:19:46.099Z,4.55
2019-05-12T17:22:17.600Z,6.92
2019-05-12T17:24:47.960Z,16.70
2019-05-12T17:27:23.931Z,15.88
2019-05-12T17:29:49.479Z,6.33
2019-05-12T17:32:19.437Z,7.30
2019-05-12T17:34:48.966Z,6.87
2019-05-12T17:37:18.591Z,8.85
2019-05-12T17:39:48.261Z,6.85
2019-05-12T17:57:57.970Z,6.42
2019-05-12T18:00:27.964Z,7.12
2019-05-12T18:03:14.688Z,6.90
2019-05-12T18:05:28.817Z,7.17
2019-05-12T18:07:58.521Z,7.80
2019-05-12T18:10:32.572Z,8.18
2019-05-12T18:12:59.874Z,8.03
2019-05-12T18:15:36.101Z,8.00
2019-05-12T18:18:00.824Z,7.42
2019-05-12T18:20:31.127Z,6.45
2019-05-12T18:23:04.360Z,6.70
2019-05-12T18:25:36.684Z,6.53
2019-05-12T18:28:05.389Z,6.70
2019-05-12T18:30:35.207Z,6.45
2019-05-12T18:33:09.161Z,6.00
2019-05-12T18:35:37.636Z,7.53
2019-05-12T18:38:17.209Z,7.10
2019-05-12T18:40:38.411Z,8.03
2019-05-12T18:43:08.142Z,10.53
2019-05-12T18:45:37.873Z,12.28
2019-05-12T18:48:16.786Z,11.57
2019-05-12T18:50:44.055Z,11.10
2019-05-12T18:53:14.956Z,11.22
2019-05-12T18:55:44.438Z,13.48
2019-05-12T18:58:14.964Z,11.83
2019-05-12T19:00:44.808Z,11.12
2019-05-12T19:03:14.580Z,9.98
2019-05-12T19:05:44.594Z,10.80
2019-05-12T19:08:14.248Z,8.40
2019-05-12T19:10:48.733Z,8.20
2019-05-12T19:13:15.737Z,7.80
2019-05-12T19:15:45.646Z,8.60
2019-05-12T19:18:18.112Z,8.43
2019-05-12T19:20:48.153Z,8.40
2019-05-12T19:23:18.155Z,8.40
2019-05-12T19:25:48.821Z,7.83
2019-05-12T19:28:18.698Z,7.97
2019-05-12T19:30:50.257Z,8.13
2019-05-12T19:33:19.755Z,9.90
2019-05-12T19:35:50.491Z,10.72
2019-05-12T19:38:20.609Z,11.05
2019-05-12T19:40:56.599Z,10.20
2019-05-12T19:43:23.567Z,11.83
2019-05-12T19:46:01.966Z,11.38
2019-05-12T19:48:27.477Z,10.50
2019-05-12T19:50:57.090Z,12.33
2019-05-12T19:53:27.013Z,10.43
2019-05-12T19:55:56.691Z,11.90
2019-05-12T19:58:26.366Z,9.48
2019-05-12T20:00:56.326Z,9.95
2019-05-12T20:03:26.299Z,9.83
2019-05-12T20:05:56.536Z,10.80
2019-05-12T20:08:26.640Z,12.28
2019-05-12T20:10:56.859Z,12.43
2019-05-12T20:13:29.461Z,13.20
2019-05-12T20:15:57.861Z,17.12
2019-05-12T20:18:27.541Z,17.30
2019-05-12T20:20:57.241Z,17.20
2019-05-12T20:23:27.221Z,16.35
2019-05-12T20:25:56.847Z,15.53
2019-05-12T20:28:26.924Z,14.10
2019-05-12T20:31:00.840Z,14.68
2019-05-12T20:33:28.132Z,13.80
2019-05-12T20:35:57.882Z,14.75
2019-05-12T20:38:34.134Z,14.75
2019-05-12T20:40:58.753Z,15.30
2019-05-12T20:43:32.564Z,15.48
2019-05-12T20:45:59.946Z,16.00
2019-05-12T20:48:31.198Z,16.30
2019-05-12T20:51:03.479Z,15.18
2019-05-12T20:53:36.664Z,14.13
2019-05-12T20:56:06.233Z,12.93
2019-05-12T20:58:41.024Z,15.43
2019-05-12T21:01:07.280Z,14.50
2019-05-12T21:03:39.823Z,13.50
2019-05-12T21:06:09.423Z,13.75
2019-05-12T21:08:44.987Z,13.40
2019-05-12T21:11:13.417Z,12.30
2019-05-12T21:13:43.950Z,11.83
2019-05-12T21:16:17.417Z,11.25
2019-05-12T21:18:50.711Z,12.00
2019-05-12T21:21:16.776Z,12.15
2019-05-12T21:23:53.838Z,15.18
2019-05-12T21:26:17.658Z,15.38
2019-05-12T21:28:48.329Z,13.08
2019-05-12T21:31:20.600Z,13.45
2019-05-12T21:33:50.280Z,13.30
2019-05-12T21:36:24.477Z,15.60
2019-05-12T21:38:54.002Z,15.50
2019-05-12T21:41:24.567Z,16.60
2019-05-12T21:43:54.473Z,16.45
2019-05-12T21:46:24.453Z,16.30
2019-05-12T21:48:56.431Z,16.25
2019-05-12T21:51:26.433Z,18.17
2019-05-12T21:53:57.685Z,16.75
2019-05-12T21:56:27.634Z,16.95
2019-05-12T21:58:58.305Z,17.95
2019-05-12T22:01:28.376Z,16.00
2019-05-12T22:04:02.341Z,17.82
2019-05-12T22:06:29.501Z,18.87
2019-05-12T22:09:01.654Z,17.92
2019-05-12T22:11:34.575Z,16.97
2019-05-12T22:14:04.800Z,17.77
2019-05-12T22:16:43.277Z,18.00
2019-05-12T22:19:07.635Z,17.40
2019-05-12T22:21:47.545Z,17.77
2019-05-12T22:24:08.890Z,16.10
2019-05-12T22:26:40.344Z,14.98
2019-05-12T22:29:10.361Z,15.45
2019-05-12T22:31:44.916Z,15.03
2019-05-12T22:34:11.103Z,15.45
2019-05-12T22:36:45.386Z,15.55
2019-05-12T22:39:14.142Z,15.38
2019-05-12T22:41:43.168Z,14.80
2019-05-12T22:44:18.361Z,16.00
2019-05-12T22:46:44.548Z,14.78
2019-05-12T22:49:16.900Z,15.15
2019-05-12T22:51:46.531Z,15.30
2019-05-12T22:54:17.685Z,13.68
2019-05-12T22:56:49.647Z,15.05
2019-05-12T22:59:20.084Z,13.93
2019-05-12T23:01:50.031Z,14.58
2019-05-12T23:04:19.876Z,14.87
2019-05-12T23:06:49.455Z,14.00
2019-05-12T23:09:25.863Z,13.48
2019-05-12T23:11:53.557Z,13.40
2019-05-12T23:14:25.095Z,13.35
2019-05-12T23:16:54.584Z,13.18
2019-05-12T23:19:24.135Z,13.08
2019-05-12T23:21:57.413Z,12.75
2019-05-12T23:24:25.237Z,14.70
2019-05-12T23:26:54.875Z,14.38
2019-05-12T23:29:26.741Z,14.80
2019-05-12T23:32:00.484Z,14.60
2019-05-12T23:34:27.485Z,14.33
2019-05-12T23:36:59.943Z,13.50
2019-05-12T23:39:32.452Z,14.78
2019-05-12T23:41:59.789Z,14.00
2019-05-12T23:44:29.394Z,14.23
2019-05-12T23:46:59.109Z,14.10
2019-05-12T23:49:28.926Z,14.98
2019-05-12T23:51:58.558Z,15.68
2019-05-12T23:54:28.212Z,15.58
2019-05-12T23:56:57.943Z,16.05
2019-05-12T23:59:27.771Z,16.45
